Time,TemperatureF,DewpointF,PressureIn,WindDirection,WindDirectionDegrees,WindSpeedMPH,WindSpeedGustMPH,Humidity,HourlyPrecipIn,Conditions,Clouds,dailyrainin,SoftwareType,DateUTC
2017-07-22 00:03:00,73.5,71.8,30.00,SSE,157,0.0,0.0,95,0.00,,,0.00,WUHU216WMR200,2017-07-22 04:03:00,
2017-07-22 00:08:00,73.5,71.8,30.00,SSE,157,0.0,0.0,95,0.00,,,0.00,WUHU216WMR200,2017-07-22 04:08:00,
2017-07-22 00:13:00,73.3,71.3,30.00,SSE,157,0.0,0.0,94,0.00,,,0.00,WUHU216WMR200,2017-07-22 04:13:00,
2017-07-22 00:18:00,73.5,71.5,30.00,SSE,157,0.0,0.0,94,0.00,,,0.00,WUHU216WMR200,2017-07-22 04:18:00,
2017-07-22 00:23:00,73.5,71.5,30.00,SSE,157,0.0,0.0,94,0.00,,,0.00,WUHU216WMR200,2017-07-22 04:23:00,
2017-07-22 00:28:00,73.3,71.3,30.00,SSE,157,0.0,0.0,94,0.00,,,0.00,WUHU216WMR200,2017-07-22 04:28:00,
2017-07-22 00:33:00,73.3,71.3,30.00,SSE,157,0.0,0.0,94,0.00,,,0.00,WUHU216WMR200,2017-07-22 04:33:00,
2017-07-22 00:38:00,73.3,71.6,30.00,SSE,157,0.0,0.0,95,0.00,,,0.00,WUHU216WMR200,2017-07-22 04:38:00,
2017-07-22 00:43:00,73.1,71.4,30.00,SSE,157,0.0,0.0,95,0.00,,,0.00,WUHU216WMR200,2017-07-22 04:43:00,
2017-07-22 00:48:00,73.1,71.4,30.00,SSE,157,0.0,0.0,95,0.00,,,0.00,WUHU216WMR200,2017-07-22 04:48:00,
2017-07-22 00:53:00,73.1,71.4,30.00,SSE,157,0.0,0.0,95,0.00,,,0.00,WUHU216WMR200,2017-07-22 04:53:00,
2017-07-22 00:58:00,73.1,71.4,30.00,SSE,157,0.0,0.0,95,0.00,,,0.00,WUHU216WMR200,2017-07-22 04:58:00,
2017-07-22 01:03:00,73.1,71.4,30.00,SSE,157,0.0,0.0,95,0.00,,,0.00,WUHU216WMR200,2017-07-22 05:03:00,
2017-07-22 01:08:00,73.1,71.4,30.00,SSE,157,0.0,0.0,95,0.00,,,0.00,WUHU216WMR200,2017-07-22 05:08:00,
2017-07-22 01:13:00,73.1,71.4,30.00,SSE,157,0.0,0.0,95,0.00,,,0.00,WUHU216WMR200,2017-07-22 05:13:00,
2017-07-22 01:18:00,73.1,71.4,30.00,SSE,157,0.0,0.0,95,0.00,,,0.00,WUHU216WMR200,2017-07-22 05:18:00,
2017-07-22 01:23:00,72.9,71.2,30.00,SSE,157,0.0,0.0,95,0.00,,,0.00,WUHU216WMR200,2017-07-22 05:23:00,
2017-07-22 01:28:00,72.9,71.2,30.00,SSE,157,0.0,0.0,95,0.00,,,0.00,WUHU216WMR200,2017-07-22 05:28:00,
2017-07-22 01:33:00,72.9,71.2,30.00,SSE,157,0.0,0.0,95,0.00,,,0.00,WUHU216WMR200,2017-07-22 05:33:00,
2017-07-22 01:38:00,72.9,71.2,30.00,SSE,157,0.0,0.0,95,0.00,,,0.00,WUHU216WMR200,2017-07-22 05:38:00,
2017-07-22 01:43:00,72.7,71.1,30.00,SSE,157,0.0,0.0,95,0.00,,,0.00,WUHU216WMR200,2017-07-22 05:43:00,
2017-07-22 01:48:00,72.6,71.0,30.00,SSE,157,0.0,0.0,95,0.00,,,0.00,WUHU216WMR200,2017-07-22 05:48:00,
2017-07-22 01:54:00,72.4,70.8,30.00,SSE,157,0.0,0.0,95,0.00,,,0.00,WUHU216WMR200,2017-07-22 05:54:00,
2017-07-22 01:59:00,72.2,70.6,30.00,SSE,157,0.0,0.0,95,0.00,,,0.00,WUHU216WMR200,2017-07-22 05:59:00,
2017-07-22 02:00:00,72.2,70.6,30.00,SSE,157,0.0,0.0,95,0.00,,,0.00,WUHU216WMR200,2017-07-22 06:00:00,
2017-07-22 02:05:00,72.2,70.6,30.00,SSE,157,0.0,0.0,95,0.00,,,0.00,WUHU216WMR200,2017-07-22 06:05:00,
2017-07-22 02:10:00,72.2,70.6,30.00,SSE,157,0.0,0.0,95,0.00,,,0.00,WUHU216WMR200,2017-07-22 06:10:00,
2017-07-22 02:15:00,72.2,70.6,29.97,SSE,157,0.0,0.0,95,0.00,,,0.00,WUHU216WMR200,2017-07-22 06:15:00,
2017-07-22 02:20:00,72.2,70.6,29.97,SSE,157,0.0,0.0,95,0.00,,,0.00,WUHU216WMR200,2017-07-22 06:20:00,
2017-07-22 02:25:00,72.4,70.8,29.97,SSE,157,0.0,0.0,95,0.00,,,0.00,WUHU216WMR200,2017-07-22 06:25:00,
2017-07-22 02:30:00,72.4,70.8,29.97,SSE,157,0.0,0.0,95,0.00,,,0.00,WUHU216WMR200,2017-07-22 06:30:00,
2017-07-22 02:35:00,72.6,71.0,29.97,SSE,157,0.0,0.0,95,0.00,,,0.00,WUHU216WMR200,2017-07-22 06:35:00,
2017-07-22 02:40:00,72.4,70.5,29.97,SSE,157,0.0,0.0,94,0.00,,,0.00,WUHU216WMR200,2017-07-22 06:40:00,
2017-07-22 02:45:00,72.4,70.5,29.97,SSE,157,0.0,0.0,94,0.00,,,0.00,WUHU216WMR200,2017-07-22 06:45:00,
2017-07-22 02:50:00,72.6,70.6,29.97,SSE,157,0.0,0.0,94,0.00,,,0.00,WUHU216WMR200,2017-07-22 06:50:00,
2017-07-22 02:55:00,72.4,70.5,29.97,SSE,157,0.0,0.0,94,0.00,,,0.00,WUHU216WMR200,2017-07-22 06:55:00,
2017-07-22 03:00:00,72.2,70.3,29.97,SSE,157,0.0,0.0,94,0.00,,,0.00,WUHU216WMR200,2017-07-22 07:00:00,
2017-07-22 03:05:00,72.0,70.1,29.97,SSE,157,0.0,0.0,94,0.00,,,0.00,WUHU216WMR200,2017-07-22 07:05:00,
2017-07-22 03:10:00,72.0,70.1,29.97,SSE,157,0.0,0.0,94,0.00,,,0.00,WUHU216WMR200,2017-07-22 07:10:00,
2017-07-22 03:15:00,71.8,69.9,29.97,SSE,157,0.0,0.0,94,0.00,,,0.00,WUHU216WMR200,2017-07-22 07:15:00,
2017-07-22 03:20:00,71.7,69.8,29.97,SSE,157,0.0,0.0,94,0.00,,,0.00,WUHU216WMR200,2017-07-22 07:20:00,
2017-07-22 03:25:00,71.6,69.6,29.97,SSE,157,0.0,0.0,94,0.00,,,0.00,WUHU216WMR200,2017-07-22 07:25:00,
2017-07-22 03:30:00,71.4,69.4,29.97,SSE,157,0.0,0.0,94,0.00,,,0.00,WUHU216WMR200,2017-07-22 07:30:00,
2017-07-22 03:35:00,71.6,69.6,29.97,SSE,157,0.0,0.0,94,0.00,,,0.00,WUHU216WMR200,2017-07-22 07:35:00,
2017-07-22 03:40:00,71.4,69.4,29.97,SSE,157,0.0,0.0,94,0.00,,,0.00,WUHU216WMR200,2017-07-22 07:40:00,
2017-07-22 03:45:00,71.2,69.5,29.97,SSE,157,0.0,0.0,95,0.00,,,0.00,WUHU216WMR200,2017-07-22 07:45:00,
2017-07-22 03:50:00,71.0,69.7,29.97,SSE,157,0.0,0.0,96,0.00,,,0.00,WUHU216WMR200,2017-07-22 07:50:00,
2017-07-22 03:55:00,71.0,69.7,29.97,SSE,157,0.0,0.0,96,0.00,,,0.00,WUHU216WMR200,2017-07-22 07:55:00,
2017-07-22 04:00:00,70.9,69.6,29.94,SSE,157,0.0,0.0,96,0.00,,,0.00,WUHU216WMR200,2017-07-22 08:00:00,
2017-07-22 04:05:00,70.9,69.6,29.94,SSE,157,0.0,0.0,96,0.00,,,0.00,WUHU216WMR200,2017-07-22 08:05:00,
2017-07-22 04:10:00,70.7,69.4,29.94,SSE,157,0.0,0.0,96,0.00,,,0.00,WUHU216WMR200,2017-07-22 08:10:00,
2017-07-22 04:15:00,70.5,69.2,29.97,SSE,157,0.0,0.0,96,0.00,,,0.00,WUHU216WMR200,2017-07-22 08:15:00,
2017-07-22 04:20:00,70.5,69.2,29.97,SSE,157,0.0,0.0,96,0.00,,,0.00,WUHU216WMR200,2017-07-22 08:20:00,
2017-07-22 04:25:00,70.3,69.3,29.97,SSE,157,0.0,0.0,97,0.00,,,0.00,WUHU216WMR200,2017-07-22 08:25:00,
2017-07-22 04:30:00,70.3,69.3,29.97,SSE,157,0.0,0.0,97,0.00,,,0.00,WUHU216WMR200,2017-07-22 08:30:00,
2017-07-22 04:35:00,70.3,69.3,29.97,SSE,157,0.0,0.0,97,0.00,,,0.00,WUHU216WMR200,2017-07-22 08:35:00,
2017-07-22 04:40:00,70.1,69.1,29.97,SSE,157,0.0,0.0,97,0.00,,,0.00,WUHU216WMR200,2017-07-22 08:40:00,
2017-07-22 04:45:00,70.1,69.1,29.94,SSE,157,0.0,0.0,97,0.00,,,0.00,WUHU216WMR200,2017-07-22 08:45:00,
2017-07-22 04:50:00,70.0,69.0,29.94,SSE,157,0.0,0.0,97,0.00,,,0.00,WUHU216WMR200,2017-07-22 08:50:00,
2017-07-22 04:55:00,70.0,69.0,29.94,SSE,157,0.0,0.0,97,0.00,,,0.00,WUHU216WMR200,2017-07-22 08:55:00,
2017-07-22 05:00:00,69.8,68.8,29.97,SSE,157,0.0,0.0,97,0.00,,,0.00,WUHU216WMR200,2017-07-22 09:00:00,
2017-07-22 05:05:00,69.8,68.8,29.97,SSE,157,0.0,0.0,97,0.00,,,0.00,WUHU216WMR200,2017-07-22 09:05:00,
2017-07-22 05:10:00,69.7,69.0,29.97,SSE,157,0.0,0.0,98,0.00,,,0.00,WUHU216WMR200,2017-07-22 09:10:00,
2017-07-22 05:15:00,69.5,68.8,29.97,SSE,157,0.0,0.0,98,0.00,,,0.00,WUHU216WMR200,2017-07-22 09:15:00,
2017-07-22 05:20:00,69.7,69.0,29.97,SSE,157,0.0,0.0,98,0.00,,,0.00,WUHU216WMR200,2017-07-22 09:20:00,
2017-07-22 05:25:00,69.5,68.8,29.97,SSE,157,0.0,0.0,98,0.00,,,0.00,WUHU216WMR200,2017-07-22 09:25:00,
2017-07-22 05:32:00,69.5,69.1,29.97,SSE,157,0.0,0.0,99,0.00,,,0.00,WUHU216WMR200,2017-07-22 09:32:00,
2017-07-22 05:37:00,69.3,68.9,29.97,SSE,157,0.0,0.0,99,0.00,,,0.00,WUHU216WMR200,2017-07-22 09:37:00,
2017-07-22 05:42:00,69.2,68.8,29.97,SSE,157,0.0,0.0,99,0.00,,,0.00,WUHU216WMR200,2017-07-22 09:42:00,
2017-07-22 05:47:00,69.2,68.8,29.97,SSE,157,0.0,0.0,99,0.00,,,0.00,WUHU216WMR200,2017-07-22 09:47:00,
2017-07-22 05:52:00,69.0,68.6,29.97,SSE,157,0.0,0.0,99,0.00,,,0.00,WUHU216WMR200,2017-07-22 09:52:00,
2017-07-22 05:57:00,69.0,68.6,29.97,SSE,157,0.0,0.0,99,0.00,,,0.00,WUHU216WMR200,2017-07-22 09:57:00,
2017-07-22 06:02:00,69.0,68.6,29.97,SSE,157,0.0,0.0,99,0.00,,,0.00,WUHU216WMR200,2017-07-22 10:02:00,
2017-07-22 06:07:00,69.0,68.6,29.97,SSE,157,0.0,0.0,99,0.00,,,0.00,WUHU216WMR200,2017-07-22 10:07:00,
2017-07-22 06:12:00,69.0,68.6,29.97,SSE,157,0.0,0.0,99,0.00,,,0.00,WUHU216WMR200,2017-07-22 10:12:00,
2017-07-22 06:17:00,69.0,68.6,29.97,SSE,157,0.0,0.0,99,0.00,,,0.00,WUHU216WMR200,2017-07-22 10:17:00,
2017-07-22 06:22:00,68.8,68.4,29.97,SSE,157,0.0,0.0,99,0.00,,,0.00,WUHU216WMR200,2017-07-22 10:22:00,
2017-07-22 06:27:00,68.8,68.4,29.97,SSE,157,0.0,0.0,99,0.00,,,0.00,WUHU216WMR200,2017-07-22 10:27:00,
2017-07-22 06:32:00,68.8,68.4,29.97,SSE,157,0.0,0.0,99,0.00,,,0.00,WUHU216WMR200,2017-07-22 10:32:00,
2017-07-22 06:37:00,69.0,68.6,29.97,SSE,157,0.0,0.0,99,0.00,,,0.00,WUHU216WMR200,2017-07-22 10:37:00,
2017-07-22 06:42:00,69.0,68.6,29.97,SSE,157,0.0,0.0,99,0.00,,,0.00,WUHU216WMR200,2017-07-22 10:42:00,
2017-07-22 06:47:00,69.2,68.8,30.00,SSE,157,0.0,0.0,99,0.00,,,0.00,WUHU216WMR200,2017-07-22 10:47:00,
2017-07-22 06:52:00,69.3,68.9,30.00,SSE,157,0.0,0.0,99,0.00,,,0.00,WUHU216WMR200,2017-07-22 10:52:00,
2017-07-22 06:57:00,69.5,69.1,30.00,SSE,157,0.0,0.0,99,0.00,,,0.00,WUHU216WMR200,2017-07-22 10:57:00,
2017-07-22 07:02:00,69.7,69.3,30.00,SSE,157,0.0,0.0,99,0.00,,,0.00,WUHU216WMR200,2017-07-22 11:02:00,
2017-07-22 07:07:00,70.0,69.6,30.00,SSE,157,0.0,0.0,99,0.00,,,0.00,WUHU216WMR200,2017-07-22 11:07:00,
2017-07-22 07:12:00,70.3,69.9,30.00,SSE,157,0.0,0.0,99,0.00,,,0.00,WUHU216WMR200,2017-07-22 11:12:00,
2017-07-22 07:17:00,70.5,70.1,29.97,SSE,157,0.0,0.0,99,0.00,,,0.00,WUHU216WMR200,2017-07-22 11:17:00,
2017-07-22 07:22:00,70.9,70.5,29.97,SSE,157,0.0,0.0,99,0.00,,,0.00,WUHU216WMR200,2017-07-22 11:22:00,
2017-07-22 07:27:00,71.2,70.8,29.97,SSE,157,0.0,0.0,99,0.00,,,0.00,WUHU216WMR200,2017-07-22 11:27:00,
2017-07-22 07:32:00,71.7,71.0,30.00,SSE,157,0.0,0.0,98,0.00,,,0.00,WUHU216WMR200,2017-07-22 11:32:00,
2017-07-22 07:37:00,72.0,71.3,30.00,SSE,157,0.0,0.0,98,0.00,,,0.00,WUHU216WMR200,2017-07-22 11:37:00,
2017-07-22 07:42:00,72.4,71.7,30.00,SSE,157,0.0,0.0,98,0.00,,,0.00,WUHU216WMR200,2017-07-22 11:42:00,
2017-07-22 07:47:00,72.7,71.7,30.00,SSE,157,0.0,0.0,97,0.00,,,0.00,WUHU216WMR200,2017-07-22 11:47:00,
2017-07-22 07:52:00,73.1,72.1,30.00,SSE,157,0.0,0.0,97,0.00,,,0.00,WUHU216WMR200,2017-07-22 11:52:00,
2017-07-22 07:57:00,73.5,72.1,30.00,SSE,157,0.0,0.0,96,0.00,,,0.00,WUHU216WMR200,2017-07-22 11:57:00,
2017-07-22 08:02:00,73.5,72.2,30.00,ESE,112,0.0,0.0,96,0.00,,,0.00,WUHU216WMR200,2017-07-22 12:02:00,
2017-07-22 08:07:00,73.7,72.1,30.00,ESE,112,0.0,0.0,95,0.00,,,0.00,WUHU216WMR200,2017-07-22 12:07:00,
2017-07-22 08:12:00,73.9,72.3,30.00,ESE,112,0.0,0.0,95,0.00,,,0.00,WUHU216WMR200,2017-07-22 12:12:00,
2017-07-22 08:17:00,73.7,72.1,30.03,SSE,157,0.0,0.0,95,0.00,,,0.00,WUHU216WMR200,2017-07-22 12:17:00,
2017-07-22 08:22:00,73.7,72.1,30.03,SSE,157,0.0,0.0,95,0.00,,,0.00,WUHU216WMR200,2017-07-22 12:22:00,
2017-07-22 08:24:00,73.9,72.3,30.03,SSE,157,0.0,0.0,95,0.00,,,0.00,WUHU216WMR200,2017-07-22 12:24:00,
2017-07-22 08:29:00,74.1,72.5,30.03,NNW,337,0.0,0.0,95,0.00,,,0.00,WUHU216WMR200,2017-07-22 12:29:00,
2017-07-22 08:34:00,74.4,72.8,30.03,SE,135,0.0,0.0,95,0.00,,,0.00,WUHU216WMR200,2017-07-22 12:34:00,
2017-07-22 08:39:00,74.8,72.8,30.03,SE,135,0.0,0.0,94,0.00,,,0.00,WUHU216WMR200,2017-07-22 12:39:00,
2017-07-22 08:44:00,75.2,73.2,30.03,SE,135,0.0,0.0,94,0.00,,,0.00,WUHU216WMR200,2017-07-22 12:44:00,
2017-07-22 08:45:00,75.2,72.9,30.03,SE,135,0.0,0.0,93,0.00,,,0.00,WUHU216WMR200,2017-07-22 12:45:00,
2017-07-22 08:49:00,75.3,73.0,30.03,SSW,202,1.8,1.8,93,0.00,,,0.00,WUHU216WMR200,2017-07-22 12:49:00,
2017-07-22 08:54:00,75.4,73.2,30.03,SSE,157,0.0,4.0,93,0.00,,,0.00,WUHU216WMR200,2017-07-22 12:54:00,
2017-07-22 09:01:00,76.0,73.4,30.03,SSE,157,0.0,3.2,92,0.00,,,0.00,WUHU216WMR200,2017-07-22 13:01:00,
2017-07-22 09:06:00,76.5,73.9,30.03,SSE,157,0.0,3.2,92,0.00,,,0.00,WUHU216WMR200,2017-07-22 13:06:00,
2017-07-22 09:11:00,77.0,74.0,30.03,SE,135,0.0,1.8,91,0.00,,,0.00,WUHU216WMR200,2017-07-22 13:11:00,
2017-07-22 09:16:00,78.0,75.0,30.03,SSE,157,0.0,3.2,91,0.00,,,0.00,WUHU216WMR200,2017-07-22 13:16:00,
2017-07-22 09:22:00,79.4,76.1,30.03,SSE,157,0.0,3.2,90,0.00,,,0.00,WUHU216WMR200,2017-07-22 13:22:00,
2017-07-22 09:27:00,80.8,76.4,30.03,SSE,157,0.0,2.2,87,0.00,,,0.00,WUHU216WMR200,2017-07-22 13:27:00,
2017-07-22 09:32:00,82.3,76.9,30.03,SSE,157,0.0,2.2,84,0.00,,,0.00,WUHU216WMR200,2017-07-22 13:32:00,
2017-07-22 09:37:00,83.3,77.6,30.03,SSE,157,2.2,2.2,83,0.00,,,0.00,WUHU216WMR200,2017-07-22 13:37:00,
2017-07-22 09:42:00,84.2,77.3,30.03,SSE,157,1.8,2.2,80,0.00,,,0.00,WUHU216WMR200,2017-07-22 13:42:00,
2017-07-22 09:46:00,85.0,77.0,30.03,SSE,157,1.8,2.6,77,0.00,,,0.00,WUHU216WMR200,2017-07-22 13:46:00,
2017-07-22 09:51:00,85.7,75.7,30.03,East,90,0.0,2.6,72,0.00,,,0.00,WUHU216WMR200,2017-07-22 13:51:00,
2017-07-22 09:56:00,86.9,77.3,30.03,SSE,157,0.0,2.6,73,0.00,,,0.00,WUHU216WMR200,2017-07-22 13:56:00,
2017-07-22 09:58:00,87.1,77.5,30.03,ESE,112,0.0,2.6,73,0.00,,,0.00,WUHU216WMR200,2017-07-22 13:58:00,
2017-07-22 10:03:00,87.1,76.2,30.03,ESE,112,0.0,4.0,70,0.00,,,0.00,WUHU216WMR200,2017-07-22 14:03:00,
2017-07-22 10:08:00,87.8,76.4,30.03,SSW,202,0.0,4.0,69,0.00,,,0.00,WUHU216WMR200,2017-07-22 14:08:00,
2017-07-22 10:13:00,88.3,76.9,30.03,SSW,202,0.0,4.0,69,0.00,,,0.00,WUHU216WMR200,2017-07-22 14:13:00,
2017-07-22 10:18:00,88.9,75.7,30.03,WSW,247,0.0,3.2,65,0.00,,,0.00,WUHU216WMR200,2017-07-22 14:18:00,
2017-07-22 10:23:00,89.1,75.4,30.03,WSW,247,0.0,5.0,64,0.00,,,0.00,WUHU216WMR200,2017-07-22 14:23:00,
2017-07-22 10:28:00,90.2,76.4,30.03,SSW,202,1.8,5.0,64,0.00,,,0.00,WUHU216WMR200,2017-07-22 14:28:00,
2017-07-22 10:33:00,90.2,75.4,30.03,WSW,247,4.0,5.0,62,0.00,,,0.00,WUHU216WMR200,2017-07-22 14:33:00,
2017-07-22 10:38:00,90.3,75.1,30.03,SSW,202,3.2,5.0,61,0.00,,,0.00,WUHU216WMR200,2017-07-22 14:38:00,
2017-07-22 10:44:00,91.2,75.4,30.03,South,180,3.2,4.0,59,0.00,,,0.00,WUHU216WMR200,2017-07-22 14:44:00,
2017-07-22 10:49:00,91.7,74.8,30.03,SSE,157,0.0,5.0,57,0.00,,,0.00,WUHU216WMR200,2017-07-22 14:49:00,
2017-07-22 10:55:00,92.3,75.4,30.03,ENE,67,3.2,5.0,57,0.00,,,0.00,WUHU216WMR200,2017-07-22 14:55:00,
2017-07-22 11:00:00,92.9,75.4,30.03,South,180,2.2,4.4,56,0.00,,,0.00,WUHU216WMR200,2017-07-22 15:00:00,
2017-07-22 11:05:00,92.7,73.6,30.03,SSW,202,0.0,4.0,53,0.00,,,0.00,WUHU216WMR200,2017-07-22 15:05:00,
2017-07-22 11:10:00,93.8,73.9,30.03,WSW,247,4.4,4.4,52,0.00,,,0.00,WUHU216WMR200,2017-07-22 15:10:00,
2017-07-22 11:15:00,93.4,73.6,30.03,WSW,247,6.2,6.2,52,0.00,,,0.00,WUHU216WMR200,2017-07-22 15:15:00,
2017-07-22 11:20:00,93.4,73.6,30.03,SE,135,4.0,8.6,52,0.00,,,0.00,WUHU216WMR200,2017-07-22 15:20:00,
2017-07-22 11:25:00,93.2,72.8,30.03,SW,225,5.0,8.6,51,0.00,,,0.00,WUHU216WMR200,2017-07-22 15:25:00,
2017-07-22 11:30:00,93.6,73.2,30.00,ENE,67,0.0,5.4,51,0.00,,,0.00,WUHU216WMR200,2017-07-22 15:30:00,
2017-07-22 11:35:00,94.4,74.0,30.00,SSW,202,0.0,5.4,51,0.00,,,0.00,WUHU216WMR200,2017-07-22 15:35:00,
2017-07-22 11:40:00,94.2,73.2,30.00,SSW,202,2.6,6.8,50,0.00,,,0.00,WUHU216WMR200,2017-07-22 15:40:00,
2017-07-22 11:45:00,94.2,73.2,30.03,SSW,202,5.0,6.8,50,0.00,,,0.00,WUHU216WMR200,2017-07-22 15:45:00,
2017-07-22 11:50:00,94.4,72.1,30.03,SW,225,2.2,5.0,48,0.00,,,0.00,WUHU216WMR200,2017-07-22 15:50:00,
2017-07-22 11:55:00,95.5,73.1,30.03,South,180,3.2,5.0,48,0.00,,,0.00,WUHU216WMR200,2017-07-22 15:55:00,
2017-07-22 12:00:00,94.9,73.2,30.00,WSW,247,0.0,5.0,49,0.00,,,0.00,WUHU216WMR200,2017-07-22 16:00:00,
2017-07-22 12:05:00,95.3,72.2,30.00,SSW,202,5.0,5.8,47,0.00,,,0.00,WUHU216WMR200,2017-07-22 16:05:00,
2017-07-22 12:10:00,94.9,70.6,30.00,SSW,202,1.8,6.2,45,0.00,,,0.00,WUHU216WMR200,2017-07-22 16:10:00,
2017-07-22 12:15:00,95.1,71.4,30.00,ESE,112,5.0,6.2,46,0.00,,,0.00,WUHU216WMR200,2017-07-22 16:15:00,
2017-07-22 12:20:00,95.8,72.0,30.00,South,180,4.4,6.2,46,0.00,,,0.00,WUHU216WMR200,2017-07-22 16:20:00,
2017-07-22 12:25:00,95.5,71.8,30.00,WSW,247,3.2,5.4,46,0.00,,,0.00,WUHU216WMR200,2017-07-22 16:25:00,
2017-07-22 12:30:00,93.4,70.5,30.00,West,270,2.2,6.2,47,0.00,,,0.00,WUHU216WMR200,2017-07-22 16:30:00,
2017-07-22 12:35:00,94.8,72.5,30.00,WSW,247,4.0,6.2,48,0.00,,,0.00,WUHU216WMR200,2017-07-22 16:35:00,
2017-07-22 12:40:00,95.1,72.7,30.00,South,180,4.0,7.2,48,0.00,,,0.00,WUHU216WMR200,2017-07-22 16:40:00,
2017-07-22 12:45:00,96.1,72.4,30.03,WSW,247,4.0,7.2,46,0.00,,,0.00,WUHU216WMR200,2017-07-22 16:45:00,
2017-07-22 12:50:00,95.3,70.9,30.03,SW,225,5.0,7.2,45,0.00,,,0.00,WUHU216WMR200,2017-07-22 16:50:00,
2017-07-22 12:55:00,95.5,70.4,30.03,WSW,247,2.2,7.2,44,0.00,,,0.00,WUHU216WMR200,2017-07-22 16:55:00,
2017-07-22 13:00:00,95.3,71.6,30.00,SW,225,4.0,8.0,46,0.00,,,0.00,WUHU216WMR200,2017-07-22 17:00:00,
2017-07-22 13:05:00,96.1,71.7,30.00,East,90,5.4,8.0,45,0.00,,,0.00,WUHU216WMR200,2017-07-22 17:05:00,
2017-07-22 13:10:00,95.8,72.0,30.00,SSW,202,5.0,7.2,46,0.00,,,0.00,WUHU216WMR200,2017-07-22 17:10:00,
2017-07-22 13:15:00,96.3,71.9,30.00,NW,315,1.8,7.2,45,0.00,,,0.00,WUHU216WMR200,2017-07-22 17:15:00,
2017-07-22 13:20:00,95.9,71.5,30.00,WSW,247,2.2,6.8,45,0.00,,,0.00,WUHU216WMR200,2017-07-22 17:20:00,
2017-07-22 13:25:00,96.3,71.9,30.00,West,270,4.0,6.8,45,0.00,,,0.00,WUHU216WMR200,2017-07-22 17:25:00,
2017-07-22 13:30:00,94.2,71.3,30.00,SSW,202,4.0,7.2,47,0.00,,,0.00,WUHU216WMR200,2017-07-22 17:30:00,
2017-07-22 13:36:00,94.2,71.3,30.00,SW,225,4.0,7.2,47,0.00,,,0.00,WUHU216WMR200,2017-07-22 17:36:00,
2017-07-22 13:41:00,95.1,72.7,30.00,SSE,157,0.0,7.2,48,0.00,,,0.00,WUHU216WMR200,2017-07-22 17:41:00,
2017-07-22 13:46:00,95.5,72.4,29.97,ESE,112,3.2,5.8,47,0.00,,,0.00,WUHU216WMR200,2017-07-22 17:46:00,
2017-07-22 13:52:00,95.9,71.5,29.97,SW,225,2.6,6.2,45,0.00,,,0.00,WUHU216WMR200,2017-07-22 17:52:00,
2017-07-22 13:57:00,97.5,72.9,29.97,SSE,157,1.8,6.2,45,0.00,,,0.00,WUHU216WMR200,2017-07-22 17:57:00,
2017-07-22 14:02:00,96.8,71.6,29.94,NNW,337,0.0,7.6,44,0.00,,,0.00,WUHU216WMR200,2017-07-22 18:02:00,
2017-07-22 14:07:00,95.7,71.3,29.94,West,270,2.2,7.6,45,0.00,,,0.00,WUHU216WMR200,2017-07-22 18:07:00,
2017-07-22 14:12:00,95.5,70.4,29.94,NE,45,1.8,7.6,44,0.00,,,0.00,WUHU216WMR200,2017-07-22 18:12:00,
2017-07-22 14:17:00,95.3,71.6,29.94,WSW,247,6.2,6.2,46,0.00,,,0.00,WUHU216WMR200,2017-07-22 18:17:00,
2017-07-22 14:22:00,94.0,69.7,29.94,WNW,292,4.4,11.2,45,0.00,,,0.00,WUHU216WMR200,2017-07-22 18:22:00,
2017-07-22 14:27:00,94.4,72.1,29.94,SSW,202,1.8,11.2,48,0.00,,,0.00,WUHU216WMR200,2017-07-22 18:27:00,
2017-07-22 14:32:00,95.5,71.8,29.94,SSW,202,5.0,6.2,46,0.00,,,0.00,WUHU216WMR200,2017-07-22 18:32:00,
2017-07-22 14:37:00,96.1,71.7,29.94,WSW,247,7.6,8.0,45,0.00,,,0.00,WUHU216WMR200,2017-07-22 18:37:00,
2017-07-22 14:42:00,94.2,70.6,29.94,East,90,1.8,9.8,46,0.00,,,0.00,WUHU216WMR200,2017-07-22 18:42:00,
2017-07-22 14:47:00,95.9,72.9,29.91,ENE,67,6.2,9.8,47,0.00,,,0.00,WUHU216WMR200,2017-07-22 18:47:00,
2017-07-22 14:52:00,94.4,68.8,29.91,West,270,5.0,8.6,43,0.00,,,0.00,WUHU216WMR200,2017-07-22 18:52:00,
2017-07-22 14:57:00,95.3,70.2,29.91,WSW,247,5.8,8.6,44,0.00,,,0.00,WUHU216WMR200,2017-07-22 18:57:00,
2017-07-22 15:02:00,95.5,70.4,29.91,WSW,247,1.8,8.6,44,0.00,,,0.00,WUHU216WMR200,2017-07-22 19:02:00,
2017-07-22 15:07:00,95.1,70.8,29.91,WNW,292,4.4,7.2,45,0.00,,,0.00,WUHU216WMR200,2017-07-22 19:07:00,
2017-07-22 15:12:00,95.3,70.2,29.91,East,90,3.2,9.8,44,0.00,,,0.00,WUHU216WMR200,2017-07-22 19:12:00,
2017-07-22 15:17:00,95.3,70.9,29.94,WSW,247,5.4,10.8,45,0.00,,,0.00,WUHU216WMR200,2017-07-22 19:17:00,
2017-07-22 15:22:00,95.3,70.2,29.94,SW,225,3.2,10.8,44,0.00,,,0.00,WUHU216WMR200,2017-07-22 19:22:00,
2017-07-22 15:27:00,94.0,69.1,29.94,ENE,67,2.2,10.8,44,0.00,,,0.00,WUHU216WMR200,2017-07-22 19:27:00,
2017-07-22 15:32:00,94.2,69.3,29.94,ESE,112,0.0,10.8,44,0.00,,,0.00,WUHU216WMR200,2017-07-22 19:32:00,
2017-07-22 15:37:00,95.1,70.8,29.94,WNW,292,5.0,10.8,45,0.00,,,0.00,WUHU216WMR200,2017-07-22 19:37:00,
2017-07-22 15:42:00,95.1,70.1,29.94,SE,135,2.2,10.8,44,0.00,,,0.00,WUHU216WMR200,2017-07-22 19:42:00,
2017-07-22 15:47:00,94.8,70.5,29.91,ENE,67,6.2,8.0,45,0.00,,,0.00,WUHU216WMR200,2017-07-22 19:47:00,
2017-07-22 15:52:00,95.1,70.1,29.91,SSW,202,3.2,8.0,44,0.00,,,0.00,WUHU216WMR200,2017-07-22 19:52:00,
2017-07-22 15:57:00,95.8,70.7,29.91,SW,225,4.4,8.0,44,0.00,,,0.00,WUHU216WMR200,2017-07-22 19:57:00,
2017-07-22 16:02:00,95.7,69.9,29.91,SW,225,3.2,6.2,43,0.00,,,0.00,WUHU216WMR200,2017-07-22 20:02:00,
2017-07-22 16:07:00,95.1,68.7,29.91,SSW,202,2.2,7.2,42,0.00,,,0.00,WUHU216WMR200,2017-07-22 20:07:00,
2017-07-22 16:12:00,94.9,68.5,29.91,SSE,157,5.0,7.2,42,0.00,,,0.00,WUHU216WMR200,2017-07-22 20:12:00,
2017-07-22 16:17:00,95.1,68.7,29.91,South,180,3.2,5.8,42,0.00,,,0.00,WUHU216WMR200,2017-07-22 20:17:00,
2017-07-22 16:22:00,94.9,68.5,29.91,SE,135,0.0,6.2,42,0.00,,,0.00,WUHU216WMR200,2017-07-22 20:22:00,
2017-07-22 16:27:00,94.4,67.3,29.91,NE,45,4.0,8.6,41,0.00,,,0.00,WUHU216WMR200,2017-07-22 20:27:00,
2017-07-22 16:32:00,94.8,69.1,29.91,NNE,22,0.0,8.6,43,0.00,,,0.00,WUHU216WMR200,2017-07-22 20:32:00,
2017-07-22 16:37:00,94.6,68.9,29.91,SSW,202,5.4,5.8,43,0.00,,,0.00,WUHU216WMR200,2017-07-22 20:37:00,
2017-07-22 16:42:00,94.0,67.6,29.91,NNE,22,5.0,6.8,42,0.00,,,0.00,WUHU216WMR200,2017-07-22 20:42:00,
2017-07-22 16:47:00,93.2,68.3,29.91,ESE,112,2.2,6.8,44,0.00,,,0.00,WUHU216WMR200,2017-07-22 20:47:00,
2017-07-22 16:52:00,92.5,67.1,29.91,SSW,202,1.8,6.2,43,0.00,,,0.00,WUHU216WMR200,2017-07-22 20:52:00,
2017-07-22 16:57:00,92.1,68.0,29.91,SSE,157,0.0,5.4,45,0.00,,,0.00,WUHU216WMR200,2017-07-22 20:57:00,
2017-07-22 17:02:00,92.2,68.2,29.91,SSW,202,3.2,5.4,45,0.00,,,0.00,WUHU216WMR200,2017-07-22 21:02:00,
2017-07-22 17:07:00,91.7,68.9,29.91,SSE,157,0.0,4.4,47,0.00,,,0.00,WUHU216WMR200,2017-07-22 21:07:00,
2017-07-22 17:12:00,91.4,68.0,29.91,SSW,202,0.0,8.6,46,0.00,,,0.00,WUHU216WMR200,2017-07-22 21:12:00,
2017-07-22 17:14:00,91.4,68.0,29.91,SSE,157,0.0,8.6,46,0.00,,,0.00,WUHU216WMR200,2017-07-22 21:14:00,
2017-07-22 17:19:00,90.8,68.8,29.88,East,90,2.2,6.8,48,0.00,,,0.00,WUHU216WMR200,2017-07-22 21:19:00,
2017-07-22 17:24:00,90.3,69.0,29.88,SSW,202,4.0,7.2,49,0.00,,,0.00,WUHU216WMR200,2017-07-22 21:24:00,
2017-07-22 17:29:00,90.2,69.4,29.88,SE,135,0.0,7.2,50,0.00,,,0.00,WUHU216WMR200,2017-07-22 21:29:00,